Woodrow, CO

6:20 PM MST on March 04, 2015 (GMT -0700)
APRSWXNET Fort Morgan CO US | Change Station
CLOSE
Current Station
Personal Weather Station
Location: Fort Morgan, CO
Elevation: 4379 ft
Nearby Weather Stations

Elev 4379 ft 40.15 °N, 103.79 °W | Updated 33 minutes ago

Clear
Clear
18 °F
Feels Like 18 °F
N
3
Wind Variable Wind from SW
Gusts 6.0 mph

Today
High -- | Low -- °F
--% Chance of Precip.
Yesterday
High -- | Low -- °F
Precip. -- in
6:23 AM 5:49 PM
Full, 100% visible
Pressure 30.36 in
Visibility 10.0 miles
Clouds Clear
Windchill 18 °F
Dew Point 9 °F
Humidity 67%
Rainfall 0.00 in
Snow Depth Not available.
UV 0 out of 12
Pollen .80 out of 12
Air Quality Not available.
Flu Activity Not available.
METAR KAKO 050053Z AUTO 24010KT 10SM CLR M07/M13 A3017 RMK AO2 SLP279 T10721128

More Conditions Fewer Conditions

Pressure 30.36 in
Visibility 10.0 miles
Clouds Clear
Windchill 18 °F
Dew Point 9 °F
Humidity 67%
Rainfall 0.00 in
Snow Depth Not available.
UV 0 out of 12
Pollen .80 out of 12
Air Quality Not available.
Flu Activity Not available.
METAR KAKO 050053Z AUTO 24010KT 10SM CLR M07/M13 A3017 RMK AO2 SLP279 T10721128

More Conditions Fewer Conditions

10-Day Weather Forecast

Almanac

Astronomy

Mar. 04, 2015 Rise Set
Actual Time
Civil Twilight
Nautical Twilight
Astronomical Twilight
Moon
Length of Visible Light
Length of Day
Tomorrow will be .
, % of the Moon is Illuminated

Today's Extremes

State Highs State Lows

Community

WunderPhotos

Upload Photos

1,802,617 photos uploaded!

WunderBlogs® & News

Nearby

Air Quality

  Air Quality AQ Index Pollutant
Not available.

Snow Depth

Station Depth Elevation

Earthquake Activity

City Distance Mag. Time & Date
Minimum magnitude displayed is 2.5.

Coastal Water Temperatures

Place Temperature

Nearby Weather Stations